Startpagina
METAR-TAF:

METAR-TAF

Vliegvelden :

Laramie, Wyoming, Verenigde Staten

breedte: 41-18-43N, lengte: 105-40-30W, hoogte: 2218 m

Actueel weer

Dit bericht is 1 uur en het 1 minuten geleden gemaakt, om 05:53 UTC
Wind 7 kt uit het zuiden
Temperatuur 7°C
Vochtigheid 70%
Druk 1026 hPa
Zicht: 16.1 km
Onbewolkt

METAR: KLAR 220553Z AUTO 19007KT 10SM CLR 07/02 A3030 RMK AO2 SLP180 T00720017 10183 20061 58002

Tijdstip: 00:54 (06:54 UTC)

Verwachting

Dit bericht is 1 uur en het 37 minuten geleden gemaakt, om 05:17 UTC
Verwachting geldig van 22 om 06 UTC tot 23 om 06 UTC
Wind 12 kt uit het zuidzuidoosten
Zicht: 10 km
Onbewolkt
Van 22 om 1000 UTC
Wind 10 kt uit het zuidzuidwesten
Zicht: 10 km
Onbewolkt
Van 22 om 1800 UTC
Wind 13 kt uit het westen met uitschieters tot 23 kt
Zicht: 10 km
Onbewolkt
Van 23 om 0200 UTC
Wind 9 kt uit het westen
Zicht: 10 km
Onbewolkt

TAF: KLAR 220517Z 2206/2306 16012KT P6SM SKC FM221000 20010KT P6SM SKC FM221800 27013G23KT P6SM SKC FM230200 26009KT P6SM SKC

Waarnemingen en weersverwachtingen van meer dan 4000 vliegvelden (METAR en TAF).

De beschikbare stations zijn de gele en rode punten op de kaart.

Ga met uw muis naar het station om de naam te zien.

Klik dan om waarnemingen en weersverwachtingen te zien.

kaart wijzigen: klik op de groene knoppen met een zwart kruis om in te zoomen, op de groene knop met een streepje om uit te zoomen of op de groene pijlen voor aangrenzende kaarten.


METAR-TAF: